AMX249T MMUN-MMTG
Flight info
| Callsign | AMX249T |
|---|---|
| Flight time | 1h 19m |
| Altitude | 32000 |
| Route | UDGUV2A UDGUV UJ84CPE UJ9 CME UJ25 TGZ |
| Aircraft | B738/M-SDE2E3FGHIRWXY/LB1 |
Departure
| Time | 2026-04-20 01:22 |
|---|---|
| Airport | Cancún International Airport (MMUN) |
Arrival
| Time | 2026-04-20 02:41 |
|---|---|
| Airport | Angel Albino Corzo International Airport (MMTG) |
| Time | Latitude | Longitude | Altitude | Speed | Heading |
|---|---|---|---|---|---|
| 2026-04-20 00:48 | 21.03674 | -86.87107 | 42 ft | 0 kts | 34° |
| 2026-04-20 01:13 | 21.03674 | -86.87108 | 40 ft | 0 kts | 34° |
| 2026-04-20 01:13 | 21.03666 | -86.87114 | 41 ft | 2 kts | 34° |
| 2026-04-20 01:13 | 21.03652 | -86.87123 | 42 ft | 2 kts | 34° |
| 2026-04-20 01:13 | 21.03639 | -86.87133 | 42 ft | 2 kts | 34° |
| 2026-04-20 01:14 | 21.03626 | -86.87143 | 42 ft | 2 kts | 34° |
| 2026-04-20 01:14 | 21.03612 | -86.87152 | 42 ft | 2 kts | 25° |
| 2026-04-20 01:14 | 21.03600 | -86.87157 | 42 ft | 0 kts | 333° |
| 2026-04-20 01:14 | 21.03598 | -86.87156 | 42 ft | 0 kts | 312° |
| 2026-04-20 01:15 | 21.03597 | -86.87156 | 42 ft | 0 kts | 307° |
| 2026-04-20 01:16 | 21.03600 | -86.87162 | 39 ft | 3 kts | 302° |
| 2026-04-20 01:16 | 21.03615 | -86.87186 | 42 ft | 5 kts | 302° |
| 2026-04-20 01:17 | 21.03636 | -86.87222 | 41 ft | 7 kts | 302° |
| 2026-04-20 01:17 | 21.03663 | -86.87268 | 42 ft | 8 kts | 302° |
| 2026-04-20 01:17 | 21.03694 | -86.87319 | 42 ft | 9 kts | 309° |
| 2026-04-20 01:17 | 21.03734 | -86.87373 | 41 ft | 10 kts | 308° |
| 2026-04-20 01:18 | 21.03776 | -86.87435 | 42 ft | 11 kts | 306° |
| 2026-04-20 01:18 | 21.03820 | -86.87508 | 40 ft | 12 kts | 294° |
| 2026-04-20 01:18 | 21.03821 | -86.87603 | 41 ft | 14 kts | 266° |
| 2026-04-20 01:18 | 21.03858 | -86.87706 | 40 ft | 18 kts | 301° |
| 2026-04-20 01:19 | 21.03951 | -86.87861 | 41 ft | 31 kts | 303° |
| 2026-04-20 01:19 | 21.04096 | -86.88087 | 41 ft | 42 kts | 304° |
| 2026-04-20 01:19 | 21.04264 | -86.88350 | 41 ft | 43 kts | 303° |
| 2026-04-20 01:19 | 21.04431 | -86.88619 | 41 ft | 43 kts | 303° |
| 2026-04-20 01:20 | 21.04589 | -86.88872 | 39 ft | 23 kts | 303° |
| 2026-04-20 01:20 | 21.04614 | -86.89021 | 39 ft | 23 kts | 221° |
| 2026-04-20 01:20 | 21.04553 | -86.89067 | 35 ft | 2 kts | 214° |
| 2026-04-20 01:20 | 21.04531 | -86.89080 | 35 ft | 4 kts | 192° |
| 2026-04-20 01:21 | 21.04510 | -86.89063 | 35 ft | 0 kts | 123° |
| 2026-04-20 01:21 | 21.04497 | -86.89041 | 34 ft | 24 kts | 123° |
| 2026-04-20 01:21 | 21.04237 | -86.88624 | 38 ft | 109 kts | 123° |
| 2026-04-20 01:21 | 21.03687 | -86.87721 | 56 ft | 178 kts | 123° |
| 2026-04-20 01:22 | 21.02942 | -86.86518 | 675 ft | 197 kts | 121° |
| 2026-04-20 01:22 | 21.02198 | -86.85309 | 1891 ft | 193 kts | 125° |
| 2026-04-20 01:22 | 21.01094 | -86.84436 | 2602 ft | 212 kts | 160° |
| 2026-04-20 01:22 | 20.99585 | -86.84434 | 3101 ft | 228 kts | 195° |
| 2026-04-20 01:23 | 20.98168 | -86.85319 | 3508 ft | 243 kts | 216° |
| 2026-04-20 01:23 | 20.96753 | -86.86423 | 3653 ft | 259 kts | 216° |
| 2026-04-20 01:23 | 20.95261 | -86.87551 | 3268 ft | 266 kts | 214° |
| 2026-04-20 01:23 | 20.93885 | -86.88855 | 2919 ft | 267 kts | 234° |
| 2026-04-20 01:24 | 20.93159 | -86.90681 | 2699 ft | 272 kts | 262° |
| 2026-04-20 01:24 | 20.92986 | -86.92701 | 2643 ft | 274 kts | 267° |
| 2026-04-20 01:24 | 20.92802 | -86.94739 | 2607 ft | 277 kts | 265° |
| 2026-04-20 01:24 | 20.92552 | -86.96774 | 2444 ft | 279 kts | 263° |
| 2026-04-20 01:25 | 20.92268 | -86.98788 | 2631 ft | 268 kts | 263° |
| 2026-04-20 01:25 | 20.91990 | -87.00706 | 2732 ft | 274 kts | 263° |
| 2026-04-20 01:25 | 20.91691 | -87.02761 | 3412 ft | 282 kts | 263° |
| 2026-04-20 01:25 | 20.91390 | -87.04833 | 4412 ft | 281 kts | 262° |
| 2026-04-20 01:26 | 20.91091 | -87.06895 | 5396 ft | 280 kts | 262° |
| 2026-04-20 01:26 | 20.90791 | -87.08964 | 6297 ft | 282 kts | 262° |
| 2026-04-20 01:26 | 20.90493 | -87.11020 | 7135 ft | 285 kts | 262° |
| 2026-04-20 01:26 | 20.90172 | -87.13130 | 7946 ft | 289 kts | 258° |
| 2026-04-20 01:27 | 20.89633 | -87.15215 | 8736 ft | 293 kts | 253° |
| 2026-04-20 01:27 | 20.88983 | -87.17295 | 9492 ft | 297 kts | 252° |
| 2026-04-20 01:27 | 20.88304 | -87.19394 | 10232 ft | 301 kts | 251° |
| 2026-04-20 01:27 | 20.87599 | -87.21574 | 10539 ft | 321 kts | 251° |
| 2026-04-20 01:28 | 20.86853 | -87.23915 | 10723 ft | 344 kts | 251° |
| 2026-04-20 01:28 | 20.86068 | -87.26404 | 10991 ft | 360 kts | 252° |
| 2026-04-20 01:28 | 20.85377 | -87.28612 | 11454 ft | 367 kts | 252° |
| 2026-04-20 01:28 | 20.84611 | -87.31071 | 12078 ft | 369 kts | 252° |
| 2026-04-20 01:29 | 20.83801 | -87.33686 | 12727 ft | 372 kts | 252° |
| 2026-04-20 01:29 | 20.82989 | -87.36321 | 13396 ft | 374 kts | 252° |
| 2026-04-20 01:29 | 20.82161 | -87.39010 | 14030 ft | 377 kts | 251° |
| 2026-04-20 01:29 | 20.81337 | -87.41687 | 14630 ft | 381 kts | 251° |
| 2026-04-20 01:30 | 20.80507 | -87.44384 | 15241 ft | 383 kts | 251° |
| 2026-04-20 01:30 | 20.79673 | -87.47094 | 15808 ft | 386 kts | 251° |
| 2026-04-20 01:30 | 20.78840 | -87.49800 | 16366 ft | 390 kts | 251° |
| 2026-04-20 01:30 | 20.77990 | -87.52558 | 16913 ft | 392 kts | 251° |
| 2026-04-20 01:31 | 20.77143 | -87.55308 | 17452 ft | 396 kts | 251° |
| 2026-04-20 01:31 | 20.76277 | -87.58108 | 17974 ft | 398 kts | 251° |
| 2026-04-20 01:31 | 20.75406 | -87.60930 | 18452 ft | 402 kts | 251° |
| 2026-04-20 01:31 | 20.74525 | -87.63784 | 18966 ft | 404 kts | 251° |
| 2026-04-20 01:32 | 20.73653 | -87.66607 | 19467 ft | 406 kts | 251° |
| 2026-04-20 01:32 | 20.72765 | -87.69476 | 19931 ft | 408 kts | 251° |
| 2026-04-20 01:32 | 20.71870 | -87.72367 | 20405 ft | 410 kts | 252° |
| 2026-04-20 01:32 | 20.70973 | -87.75266 | 20869 ft | 412 kts | 252° |
| 2026-04-20 01:33 | 20.70071 | -87.78177 | 21318 ft | 414 kts | 252° |
| 2026-04-20 01:33 | 20.69165 | -87.81095 | 21702 ft | 416 kts | 252° |
| 2026-04-20 01:33 | 20.68249 | -87.84042 | 22101 ft | 418 kts | 252° |
| 2026-04-20 01:33 | 20.67334 | -87.86997 | 22534 ft | 420 kts | 252° |
| 2026-04-20 01:34 | 20.66412 | -87.89961 | 22888 ft | 422 kts | 252° |
| 2026-04-20 01:34 | 20.65504 | -87.92883 | 23202 ft | 425 kts | 252° |
| 2026-04-20 01:34 | 20.64578 | -87.95857 | 23585 ft | 427 kts | 252° |
| 2026-04-20 01:34 | 20.63642 | -87.98863 | 23983 ft | 428 kts | 252° |
| 2026-04-20 01:35 | 20.62730 | -88.01790 | 24336 ft | 429 kts | 252° |
| 2026-04-20 01:35 | 20.61785 | -88.04823 | 24681 ft | 431 kts | 252° |
| 2026-04-20 01:35 | 20.60838 | -88.07857 | 25010 ft | 432 kts | 252° |
| 2026-04-20 01:35 | 20.59869 | -88.10910 | 25322 ft | 435 kts | 250° |
| 2026-04-20 01:36 | 20.58598 | -88.13842 | 25669 ft | 437 kts | 243° |
| 2026-04-20 01:36 | 20.57146 | -88.16698 | 26015 ft | 438 kts | 242° |
| 2026-04-20 01:36 | 20.55653 | -88.19545 | 26332 ft | 440 kts | 242° |
| 2026-04-20 01:36 | 20.54197 | -88.22309 | 26621 ft | 441 kts | 242° |
| 2026-04-20 01:37 | 20.52676 | -88.25212 | 26914 ft | 443 kts | 242° |
| 2026-04-20 01:37 | 20.51182 | -88.28090 | 27208 ft | 444 kts | 242° |
| 2026-04-20 01:37 | 20.49696 | -88.30977 | 27510 ft | 445 kts | 243° |
| 2026-04-20 01:37 | 20.48211 | -88.33876 | 27781 ft | 446 kts | 243° |
| 2026-04-20 01:38 | 20.46722 | -88.36789 | 28068 ft | 447 kts | 243° |
| 2026-04-20 01:38 | 20.45238 | -88.39697 | 28362 ft | 447 kts | 243° |
| 2026-04-20 01:38 | 20.43753 | -88.42605 | 28758 ft | 445 kts | 243° |
| 2026-04-20 01:38 | 20.42279 | -88.45493 | 29229 ft | 442 kts | 243° |
| 2026-04-20 01:39 | 20.40816 | -88.48358 | 29666 ft | 439 kts | 243° |
| 2026-04-20 01:39 | 20.39358 | -88.51211 | 30043 ft | 438 kts | 243° |
| 2026-04-20 01:39 | 20.37901 | -88.54058 | 30404 ft | 437 kts | 243° |
| 2026-04-20 01:39 | 20.36449 | -88.56895 | 30805 ft | 435 kts | 243° |
| 2026-04-20 01:40 | 20.35005 | -88.59713 | 31189 ft | 434 kts | 243° |
| 2026-04-20 01:40 | 20.33556 | -88.62542 | 31517 ft | 434 kts | 243° |
| 2026-04-20 01:40 | 20.32115 | -88.65353 | 31880 ft | 433 kts | 243° |
| 2026-04-20 01:40 | 20.30662 | -88.68185 | 31972 ft | 436 kts | 243° |
| 2026-04-20 01:41 | 20.27748 | -88.73863 | 31984 ft | 436 kts | 243° |
| 2026-04-20 01:41 | 20.24859 | -88.79482 | 31992 ft | 430 kts | 243° |
| 2026-04-20 01:42 | 20.21977 | -88.85085 | 32000 ft | 431 kts | 243° |
| 2026-04-20 01:42 | 20.19561 | -88.89779 | 32003 ft | 432 kts | 243° |
| 2026-04-20 01:43 | 20.16669 | -88.95395 | 32001 ft | 433 kts | 243° |
| 2026-04-20 01:43 | 20.13832 | -89.00896 | 32001 ft | 433 kts | 243° |
| 2026-04-20 01:44 | 20.10927 | -89.06522 | 32001 ft | 434 kts | 243° |
| 2026-04-20 01:44 | 20.08020 | -89.12147 | 32011 ft | 434 kts | 243° |
| 2026-04-20 01:45 | 20.05112 | -89.17768 | 32006 ft | 434 kts | 243° |
| 2026-04-20 01:45 | 20.02204 | -89.23384 | 32009 ft | 433 kts | 243° |
| 2026-04-20 01:46 | 19.99295 | -89.28996 | 32011 ft | 433 kts | 243° |
| 2026-04-20 01:46 | 19.96387 | -89.34600 | 32005 ft | 433 kts | 242° |
| 2026-04-20 01:47 | 19.93468 | -89.40220 | 32011 ft | 434 kts | 242° |
| 2026-04-20 01:47 | 19.90545 | -89.45844 | 32011 ft | 435 kts | 242° |
| 2026-04-20 01:48 | 19.87614 | -89.51478 | 32010 ft | 436 kts | 242° |
| 2026-04-20 01:48 | 19.84675 | -89.57120 | 32009 ft | 437 kts | 242° |
| 2026-04-20 01:49 | 19.81731 | -89.62768 | 32001 ft | 437 kts | 242° |
| 2026-04-20 01:49 | 19.78784 | -89.68415 | 32001 ft | 437 kts | 242° |
| 2026-04-20 01:50 | 19.75836 | -89.74057 | 32004 ft | 436 kts | 242° |
| 2026-04-20 01:50 | 19.72913 | -89.79646 | 32008 ft | 435 kts | 242° |
| 2026-04-20 01:51 | 19.69969 | -89.85269 | 32010 ft | 435 kts | 242° |
| 2026-04-20 01:51 | 19.67035 | -89.90869 | 32009 ft | 434 kts | 242° |
| 2026-04-20 01:52 | 19.64099 | -89.96469 | 32010 ft | 433 kts | 242° |
| 2026-04-20 01:52 | 19.61217 | -90.01962 | 32008 ft | 433 kts | 242° |
| 2026-04-20 01:53 | 19.58284 | -90.07544 | 32012 ft | 433 kts | 242° |
| 2026-04-20 01:53 | 19.55349 | -90.13125 | 32010 ft | 434 kts | 242° |
| 2026-04-20 01:54 | 19.52406 | -90.18716 | 32002 ft | 434 kts | 242° |
| 2026-04-20 01:54 | 19.49454 | -90.24317 | 31996 ft | 435 kts | 242° |
| 2026-04-20 01:55 | 19.46500 | -90.29922 | 31997 ft | 436 kts | 242° |
| 2026-04-20 01:55 | 19.43521 | -90.35523 | 31989 ft | 439 kts | 240° |
| 2026-04-20 01:56 | 19.40492 | -90.41132 | 31997 ft | 438 kts | 242° |
| 2026-04-20 01:56 | 19.37544 | -90.46800 | 32001 ft | 438 kts | 242° |
| 2026-04-20 01:57 | 19.34605 | -90.52410 | 32000 ft | 438 kts | 242° |
| 2026-04-20 01:57 | 19.31634 | -90.58032 | 31996 ft | 438 kts | 242° |
| 2026-04-20 01:58 | 19.28655 | -90.63649 | 32002 ft | 437 kts | 242° |
| 2026-04-20 01:58 | 19.25673 | -90.69265 | 32001 ft | 437 kts | 242° |
| 2026-04-20 01:59 | 19.22689 | -90.74880 | 32000 ft | 437 kts | 242° |
| 2026-04-20 01:59 | 19.19704 | -90.80492 | 32002 ft | 437 kts | 242° |
| 2026-04-20 02:00 | 19.16719 | -90.86098 | 32000 ft | 437 kts | 242° |
| 2026-04-20 02:00 | 19.13733 | -90.91702 | 32001 ft | 437 kts | 242° |
| 2026-04-20 02:01 | 19.10744 | -90.97306 | 31999 ft | 437 kts | 241° |
| 2026-04-20 02:01 | 19.07800 | -91.02822 | 32000 ft | 438 kts | 241° |
| 2026-04-20 02:02 | 19.04767 | -91.08498 | 32011 ft | 448 kts | 241° |
| 2026-04-20 02:02 | 19.01669 | -91.14292 | 32008 ft | 455 kts | 241° |
| 2026-04-20 02:03 | 18.98561 | -91.20097 | 31990 ft | 455 kts | 241° |
| 2026-04-20 02:03 | 18.95442 | -91.25916 | 31999 ft | 454 kts | 241° |
| 2026-04-20 02:04 | 18.92348 | -91.31684 | 31999 ft | 454 kts | 241° |
| 2026-04-20 02:04 | 18.89240 | -91.37474 | 31996 ft | 453 kts | 241° |
| 2026-04-20 02:05 | 18.86130 | -91.43261 | 32002 ft | 453 kts | 241° |
| 2026-04-20 02:05 | 18.83022 | -91.49039 | 31996 ft | 453 kts | 241° |
| 2026-04-20 02:06 | 18.79908 | -91.54825 | 32001 ft | 452 kts | 241° |
| 2026-04-20 02:06 | 18.76806 | -91.60595 | 31999 ft | 452 kts | 243° |
| 2026-04-20 02:07 | 18.75695 | -91.63684 | 32020 ft | 450 kts | 254° |
| 2026-04-20 02:07 | 18.74770 | -91.66841 | 31996 ft | 451 kts | 251° |
| 2026-04-20 02:07 | 18.72103 | -91.72833 | 32010 ft | 452 kts | 239° |
| 2026-04-20 02:08 | 18.68636 | -91.78323 | 32004 ft | 453 kts | 235° |
| 2026-04-20 02:08 | 18.64934 | -91.83719 | 31999 ft | 455 kts | 234° |
| 2026-04-20 02:09 | 18.61238 | -91.89132 | 32001 ft | 455 kts | 235° |
| 2026-04-20 02:09 | 18.57564 | -91.94576 | 31997 ft | 456 kts | 235° |
| 2026-04-20 02:10 | 18.53904 | -92.00025 | 32002 ft | 457 kts | 235° |
| 2026-04-20 02:10 | 18.50280 | -92.05429 | 32009 ft | 457 kts | 235° |
| 2026-04-20 02:11 | 18.46614 | -92.10909 | 32019 ft | 458 kts | 235° |
| 2026-04-20 02:11 | 18.42955 | -92.16388 | 32014 ft | 458 kts | 235° |
| 2026-04-20 02:12 | 18.39293 | -92.21886 | 32008 ft | 458 kts | 235° |
| 2026-04-20 02:12 | 18.35637 | -92.27386 | 32010 ft | 458 kts | 235° |
| 2026-04-20 02:13 | 18.31986 | -92.32888 | 32006 ft | 458 kts | 236° |
| 2026-04-20 02:13 | 18.28342 | -92.38394 | 31998 ft | 458 kts | 236° |
| 2026-04-20 02:14 | 18.24702 | -92.43904 | 32000 ft | 458 kts | 236° |
| 2026-04-20 02:14 | 18.21078 | -92.49401 | 31989 ft | 453 kts | 236° |
| 2026-04-20 02:15 | 18.19312 | -92.52084 | 31986 ft | 438 kts | 236° |
| 2026-04-20 02:15 | 18.17606 | -92.54679 | 31994 ft | 427 kts | 236° |
| 2026-04-20 02:15 | 18.14248 | -92.59803 | 32017 ft | 425 kts | 236° |
| 2026-04-20 02:16 | 18.10885 | -92.64944 | 32019 ft | 427 kts | 236° |
| 2026-04-20 02:16 | 18.07516 | -92.70102 | 32026 ft | 429 kts | 236° |
| 2026-04-20 02:17 | 18.04172 | -92.75230 | 32022 ft | 431 kts | 236° |
| 2026-04-20 02:17 | 18.00781 | -92.80438 | 32019 ft | 432 kts | 236° |
| 2026-04-20 02:18 | 17.97353 | -92.85625 | 32007 ft | 434 kts | 230° |
| 2026-04-20 02:18 | 17.95060 | -92.87644 | 32025 ft | 433 kts | 208° |
| 2026-04-20 02:18 | 17.92228 | -92.88722 | 32034 ft | 435 kts | 193° |
| 2026-04-20 02:19 | 17.86202 | -92.89145 | 32031 ft | 438 kts | 172° |
| 2026-04-20 02:19 | 17.80221 | -92.87820 | 31778 ft | 442 kts | 168° |
| 2026-04-20 02:20 | 17.77213 | -92.87140 | 31239 ft | 441 kts | 171° |
| 2026-04-20 02:20 | 17.74206 | -92.86643 | 30742 ft | 435 kts | 173° |
| 2026-04-20 02:20 | 17.71221 | -92.86355 | 30213 ft | 425 kts | 180° |
| 2026-04-20 02:20 | 17.68305 | -92.86453 | 29720 ft | 415 kts | 184° |
| 2026-04-20 02:21 | 17.62656 | -92.87009 | 28711 ft | 399 kts | 187° |
| 2026-04-20 02:21 | 17.59925 | -92.87377 | 28263 ft | 391 kts | 188° |
| 2026-04-20 02:21 | 17.57292 | -92.87749 | 27838 ft | 384 kts | 188° |
| 2026-04-20 02:22 | 17.54627 | -92.88160 | 27409 ft | 381 kts | 189° |
| 2026-04-20 02:22 | 17.52040 | -92.88614 | 26998 ft | 383 kts | 190° |
| 2026-04-20 02:22 | 17.49375 | -92.89123 | 26582 ft | 386 kts | 191° |
| 2026-04-20 02:22 | 17.47629 | -92.89469 | 26300 ft | 386 kts | 191° |
| 2026-04-20 02:23 | 17.45003 | -92.89996 | 25871 ft | 383 kts | 191° |
| 2026-04-20 02:23 | 17.41549 | -92.90672 | 25306 ft | 379 kts | 190° |
| 2026-04-20 02:23 | 17.39798 | -92.91005 | 25031 ft | 381 kts | 190° |
| 2026-04-20 02:23 | 17.36319 | -92.91654 | 24482 ft | 385 kts | 189° |
| 2026-04-20 02:24 | 17.34535 | -92.91968 | 24198 ft | 385 kts | 189° |
| 2026-04-20 02:24 | 17.31887 | -92.92426 | 23772 ft | 385 kts | 189° |
| 2026-04-20 02:24 | 17.29248 | -92.92859 | 23354 ft | 383 kts | 188° |
| 2026-04-20 02:24 | 17.26645 | -92.93270 | 22901 ft | 375 kts | 188° |
| 2026-04-20 02:25 | 17.24091 | -92.93670 | 22476 ft | 367 kts | 188° |
| 2026-04-20 02:25 | 17.21587 | -92.94064 | 22045 ft | 359 kts | 188° |
| 2026-04-20 02:25 | 17.19141 | -92.94454 | 21613 ft | 352 kts | 188° |
| 2026-04-20 02:25 | 17.16735 | -92.94831 | 21167 ft | 347 kts | 187° |
| 2026-04-20 02:26 | 17.14361 | -92.95189 | 20641 ft | 344 kts | 187° |
| 2026-04-20 02:26 | 17.11985 | -92.95547 | 20014 ft | 345 kts | 187° |
| 2026-04-20 02:26 | 17.09640 | -92.95904 | 19414 ft | 346 kts | 187° |
| 2026-04-20 02:26 | 17.07261 | -92.96272 | 18795 ft | 346 kts | 187° |
| 2026-04-20 02:27 | 17.04883 | -92.96644 | 18176 ft | 344 kts | 187° |
| 2026-04-20 02:27 | 17.02515 | -92.97024 | 17547 ft | 344 kts | 187° |
| 2026-04-20 02:27 | 17.00148 | -92.97385 | 16926 ft | 343 kts | 186° |
| 2026-04-20 02:27 | 16.97786 | -92.97707 | 16313 ft | 343 kts | 185° |
| 2026-04-20 02:28 | 16.95427 | -92.98018 | 15697 ft | 341 kts | 185° |
| 2026-04-20 02:28 | 16.93038 | -92.98328 | 15056 ft | 340 kts | 185° |
| 2026-04-20 02:28 | 16.90692 | -92.98627 | 14432 ft | 339 kts | 185° |
| 2026-04-20 02:28 | 16.88390 | -92.98916 | 13949 ft | 334 kts | 185° |
| 2026-04-20 02:29 | 16.86133 | -92.99201 | 13746 ft | 320 kts | 185° |
| 2026-04-20 02:29 | 16.83981 | -92.99469 | 13666 ft | 304 kts | 185° |
| 2026-04-20 02:29 | 16.81938 | -92.99727 | 13588 ft | 288 kts | 185° |
| 2026-04-20 02:29 | 16.79990 | -92.99981 | 13241 ft | 278 kts | 185° |
| 2026-04-20 02:30 | 16.78146 | -93.00221 | 12849 ft | 272 kts | 185° |
| 2026-04-20 02:30 | 16.76288 | -93.00469 | 12433 ft | 267 kts | 186° |
| 2026-04-20 02:30 | 16.74460 | -93.00701 | 12019 ft | 262 kts | 186° |
| 2026-04-20 02:30 | 16.72668 | -93.00937 | 11611 ft | 257 kts | 185° |
| 2026-04-20 02:31 | 16.70911 | -93.01159 | 11216 ft | 252 kts | 185° |
| 2026-04-20 02:31 | 16.69181 | -93.01386 | 10798 ft | 249 kts | 185° |
| 2026-04-20 02:31 | 16.67470 | -93.01616 | 10387 ft | 246 kts | 185° |
| 2026-04-20 02:31 | 16.65778 | -93.01848 | 9983 ft | 244 kts | 185° |
| 2026-04-20 02:32 | 16.64104 | -93.02082 | 9586 ft | 242 kts | 185° |
| 2026-04-20 02:32 | 16.62443 | -93.02319 | 9179 ft | 240 kts | 185° |
| 2026-04-20 02:32 | 16.60789 | -93.02555 | 8768 ft | 239 kts | 185° |
| 2026-04-20 02:32 | 16.59172 | -93.02451 | 8330 ft | 229 kts | 150° |
| 2026-04-20 02:33 | 16.57828 | -93.01660 | 7979 ft | 221 kts | 146° |
| 2026-04-20 02:33 | 16.56443 | -93.00931 | 7597 ft | 224 kts | 148° |
| 2026-04-20 02:33 | 16.55044 | -93.00211 | 7229 ft | 227 kts | 150° |
| 2026-04-20 02:33 | 16.53673 | -92.99429 | 6839 ft | 222 kts | 134° |
| 2026-04-20 02:34 | 16.52561 | -92.98339 | 6452 ft | 218 kts | 130° |
| 2026-04-20 02:34 | 16.51508 | -92.97201 | 6061 ft | 218 kts | 127° |
| 2026-04-20 02:34 | 16.50491 | -92.96030 | 5655 ft | 218 kts | 126° |
| 2026-04-20 02:34 | 16.49489 | -92.94851 | 5231 ft | 216 kts | 127° |
| 2026-04-20 02:35 | 16.48480 | -92.93727 | 5035 ft | 206 kts | 132° |
| 2026-04-20 02:35 | 16.47456 | -92.92681 | 5006 ft | 205 kts | 131° |
| 2026-04-20 02:35 | 16.46467 | -92.91642 | 4989 ft | 199 kts | 130° |
| 2026-04-20 02:35 | 16.45514 | -92.90620 | 4985 ft | 195 kts | 130° |
| 2026-04-20 02:36 | 16.44443 | -92.89732 | 4952 ft | 203 kts | 157° |
| 2026-04-20 02:36 | 16.43032 | -92.89729 | 4794 ft | 209 kts | 203° |
| 2026-04-20 02:36 | 16.42023 | -92.90728 | 4596 ft | 200 kts | 250° |
| 2026-04-20 02:36 | 16.42002 | -92.92095 | 4430 ft | 189 kts | 298° |
| 2026-04-20 02:37 | 16.42876 | -92.92995 | 4273 ft | 173 kts | 330° |
| 2026-04-20 02:37 | 16.43812 | -92.93784 | 4094 ft | 175 kts | 321° |
| 2026-04-20 02:37 | 16.44705 | -92.94648 | 3924 ft | 176 kts | 317° |
| 2026-04-20 02:37 | 16.45568 | -92.95556 | 3777 ft | 176 kts | 318° |
| 2026-04-20 02:38 | 16.46489 | -92.96370 | 3518 ft | 170 kts | 331° |
| 2026-04-20 02:38 | 16.47449 | -92.96987 | 3348 ft | 154 kts | 333° |
| 2026-04-20 02:38 | 16.48344 | -92.97556 | 3125 ft | 150 kts | 333° |
| 2026-04-20 02:38 | 16.49227 | -92.98129 | 2907 ft | 149 kts | 330° |
| 2026-04-20 02:39 | 16.50107 | -92.98694 | 2729 ft | 150 kts | 332° |
| 2026-04-20 02:39 | 16.51014 | -92.99276 | 2511 ft | 155 kts | 330° |
| 2026-04-20 02:39 | 16.51924 | -92.99864 | 2310 ft | 153 kts | 329° |
| 2026-04-20 02:39 | 16.52825 | -93.00442 | 2124 ft | 151 kts | 330° |
| 2026-04-20 02:40 | 16.53720 | -93.01014 | 1997 ft | 152 kts | 329° |
| 2026-04-20 02:40 | 16.54626 | -93.01607 | 1742 ft | 154 kts | 329° |
| 2026-04-20 02:40 | 16.55533 | -93.02184 | 1521 ft | 150 kts | 330° |
| 2026-04-20 02:40 | 16.56343 | -93.02698 | 1512 ft | 119 kts | 327° |
| 2026-04-20 02:41 | 16.56728 | -93.02951 | 1515 ft | 26 kts | 328° |
| 2026-04-20 02:41 | 16.56886 | -93.03056 | 1512 ft | 26 kts | 328° |
| 2026-04-20 02:41 | 16.57024 | -93.03145 | 1513 ft | 17 kts | 328° |
| 2026-04-20 02:41 | 16.57123 | -93.03154 | 1514 ft | 10 kts | 0° |
| 2026-04-20 02:42 | 16.57155 | -93.03200 | 1513 ft | 10 kts | 244° |
| 2026-04-20 02:42 | 16.57135 | -93.03209 | 1511 ft | 2 kts | 174° |
| 2026-04-20 02:42 | 16.57085 | -93.03185 | 1514 ft | 18 kts | 148° |
| 2026-04-20 02:42 | 16.56958 | -93.03102 | 1512 ft | 24 kts | 149° |
| 2026-04-20 02:43 | 16.56801 | -93.03002 | 1515 ft | 29 kts | 148° |
| 2026-04-20 02:43 | 16.56618 | -93.02886 | 1514 ft | 33 kts | 148° |
| 2026-04-20 02:43 | 16.56417 | -93.02758 | 1513 ft | 35 kts | 148° |
| 2026-04-20 02:43 | 16.56263 | -93.02659 | 1512 ft | 15 kts | 148° |
| 2026-04-20 02:44 | 16.56186 | -93.02589 | 1511 ft | 15 kts | 130° |
| 2026-04-20 02:44 | 16.56125 | -93.02495 | 1511 ft | 16 kts | 120° |
| 2026-04-20 02:44 | 16.56070 | -93.02390 | 1511 ft | 16 kts | 118° |
| 2026-04-20 02:44 | 16.56039 | -93.02330 | 1512 ft | 3 kts | 117° |
| 2026-04-20 02:45 | 16.56028 | -93.02296 | 1512 ft | 8 kts | 101° |
| 2026-04-20 02:45 | 16.56052 | -93.02218 | 1513 ft | 14 kts | 59° |
| 2026-04-20 02:45 | 16.56103 | -93.02134 | 1513 ft | 11 kts | 58° |
| 2026-04-20 02:45 | 16.56114 | -93.02100 | 1511 ft | 6 kts | 98° |
| 2026-04-20 02:46 | 16.56090 | -93.02070 | 1513 ft | 2 kts | 142° |
| 2026-04-20 02:46 | 16.56082 | -93.02064 | 1513 ft | 0 kts | 144° |